createdAt,value
2019-06-08T00:00:16.750Z,1120.76
2019-06-08T00:01:16.405Z,1120.53
2019-06-08T00:02:16.602Z,1120.35
2019-06-08T00:03:16.655Z,1120.26
2019-06-08T00:04:16.493Z,1120.35
2019-06-08T00:05:16.853Z,1120.35
2019-06-08T00:06:16.728Z,1120.24
2019-06-08T00:07:16.600Z,1120.11
2019-06-08T00:08:16.745Z,1120.07
2019-06-08T00:09:16.691Z,1119.92
2019-06-08T00:10:16.805Z,1119.89
2019-06-08T00:11:16.795Z,1119.86
2019-06-08T00:12:15.565Z,1119.75
2019-06-08T00:13:15.584Z,1119.59
2019-06-08T00:14:15.619Z,1119.24
2019-06-08T00:15:16.132Z,1119.04
2019-06-08T00:16:15.582Z,1118.56
2019-06-08T00:17:30.191Z,1118.34
2019-06-08T00:18:15.605Z,1118.02
2019-06-08T00:19:15.581Z,1117.59
2019-06-08T00:23:45.919Z,1116.77
2019-06-08T00:24:45.853Z,1116.61
2019-06-08T00:25:45.878Z,1116.48
2019-06-08T00:26:45.858Z,1116.49
2019-06-08T00:27:55.724Z,1116.46
2019-06-08T00:28:45.871Z,1116.42
2019-06-08T00:29:45.891Z,1116.38
2019-06-08T00:30:45.875Z,1116.37
2019-06-08T00:31:45.892Z,1116.35
2019-06-08T00:32:45.885Z,1116.45
2019-06-08T00:33:45.885Z,1116.35
2019-06-08T00:34:45.869Z,1116.55
2019-06-08T00:35:45.895Z,1116.43
2019-06-08T00:36:45.881Z,1116.46
2019-06-08T00:37:45.875Z,1116.36
2019-06-08T00:38:45.903Z,1116.32
2019-06-08T00:39:45.885Z,1116.32
2019-06-08T00:40:45.893Z,1116.19
2019-06-08T00:41:45.881Z,1116.21
2019-06-08T00:42:45.887Z,1116.19
2019-06-08T00:43:45.909Z,1116.07
2019-06-08T00:44:45.895Z,1116.04
2019-06-08T00:45:45.907Z,1115.9
2019-06-08T00:46:45.888Z,1115.62
2019-06-08T00:47:47.800Z,1115.52
2019-06-08T00:48:45.908Z,1115.23
2019-06-08T00:49:45.907Z,1114.95
2019-06-08T00:50:45.902Z,1114.51
2019-06-08T00:51:45.921Z,1114.14
2019-06-08T00:52:45.908Z,1114
2019-06-08T00:53:45.924Z,1113.78
2019-06-08T00:54:45.909Z,1113.68
2019-06-08T00:55:45.914Z,1113.78
2019-06-08T00:56:45.912Z,1113.64
2019-06-08T00:57:56.181Z,1113.52
2019-06-08T00:58:45.943Z,1113.53
2019-06-08T00:59:45.932Z,1113.55
2019-06-08T01:00:48.836Z,1113.62
2019-06-08T01:01:45.924Z,1113.54
2019-06-08T01:02:45.917Z,1113.46
2019-06-08T01:03:45.918Z,1113.39
2019-06-08T01:09:01.945Z,1113.19
2019-06-08T01:09:12.921Z,1112.31
2019-06-08T01:10:12.910Z,1112.1
2019-06-08T01:11:12.933Z,1112
2019-06-08T01:12:12.925Z,1111.81
2019-06-08T01:13:12.912Z,1111.41
2019-06-08T01:14:12.944Z,1111.03
2019-06-08T01:15:12.982Z,1110.65
2019-06-08T01:16:12.928Z,1110.38
2019-06-08T01:17:12.915Z,1110.14
2019-06-08T01:18:12.938Z,1109.99
2019-06-08T01:19:12.927Z,1109.57
2019-06-08T01:20:12.932Z,1109.42
2019-06-08T01:21:12.922Z,1109.23
2019-06-08T01:22:12.951Z,1109.17
2019-06-08T01:23:12.953Z,1109.12
2019-06-08T01:24:12.948Z,1109.08
2019-06-08T01:25:12.929Z,1109.28
2019-06-08T01:26:12.935Z,1109.27
2019-06-08T01:27:12.962Z,1109.41
2019-06-08T01:28:13.009Z,1109.4
2019-06-08T01:29:12.954Z,1109.74
2019-06-08T01:30:12.950Z,1109.8
2019-06-08T01:31:12.966Z,1109.79
2019-06-08T01:32:12.980Z,1109.72
2019-06-08T01:33:12.964Z,1109.68
2019-06-08T01:34:12.945Z,1109.76
2019-06-08T01:35:12.958Z,1109.65
2019-06-08T01:36:12.963Z,1109.53
2019-06-08T01:37:12.947Z,1109.32
2019-06-08T01:38:12.959Z,1109.15
2019-06-08T01:39:12.957Z,1109.14
2019-06-08T01:40:12.969Z,1109.14
2019-06-08T01:41:12.953Z,1109.08
2019-06-08T01:42:12.957Z,1109.2
2019-06-08T01:43:13.469Z,1109.36
2019-06-08T01:44:12.977Z,1109.33
2019-06-08T01:45:12.962Z,1109.71
2019-06-08T01:46:12.963Z,1109.79
2019-06-08T01:47:12.973Z,1109.91
2019-06-08T01:48:19.751Z,1110.18
2019-06-08T01:49:12.984Z,1110.5
2019-06-08T01:50:12.971Z,1110.83
2019-06-08T01:51:12.977Z,1111.28
2019-06-08T01:52:12.989Z,1111.55
2019-06-08T01:53:12.992Z,1111.94
2019-06-08T01:54:13.004Z,1112.01
2019-06-08T01:55:12.981Z,1112.35
2019-06-08T01:56:12.990Z,1112.48
2019-06-08T01:57:12.977Z,1112.43
2019-06-08T01:58:12.994Z,1112.37
2019-06-08T01:59:13.004Z,1112.33
2019-06-08T02:00:29.595Z,1112.11
2019-06-08T02:01:13.281Z,1111.95
2019-06-08T02:02:13.019Z,1111.82
2019-06-08T02:03:13.000Z,1111.94
2019-06-08T02:09:52.448Z,1111.84
2019-06-08T02:10:52.394Z,1112.07
2019-06-08T02:11:52.427Z,1112.13
2019-06-08T02:12:52.424Z,1112.49
2019-06-08T02:13:52.409Z,1112.84
2019-06-08T02:14:52.421Z,1113.15
2019-06-08T02:15:52.409Z,1113.37
2019-06-08T02:16:52.416Z,1113.55
2019-06-08T02:17:52.566Z,1113.69
2019-06-08T02:18:52.428Z,1114
2019-06-08T02:19:52.427Z,1114.28
2019-06-08T02:20:52.435Z,1114.64
2019-06-08T02:21:52.422Z,1114.97
2019-06-08T02:22:52.426Z,1115.09
2019-06-08T02:23:52.436Z,1115.37
2019-06-08T02:24:52.420Z,1115.39
2019-06-08T02:25:52.427Z,1115.67
2019-06-08T02:26:52.454Z,1115.5
2019-06-08T02:27:52.479Z,1115.37
2019-06-08T02:28:52.481Z,1115.41
2019-06-08T02:29:52.430Z,1115.29
2019-06-08T02:30:52.436Z,1115.01
2019-06-08T02:31:52.464Z,1114.63
2019-06-08T02:32:52.461Z,1114.39
2019-06-08T02:33:52.436Z,1114.06
2019-06-08T02:34:52.442Z,1113.98
2019-06-08T02:35:52.455Z,1113.93
2019-06-08T02:36:52.439Z,1113.81
2019-06-08T02:37:52.437Z,1113.88
2019-06-08T02:38:52.453Z,1114.04
2019-06-08T02:39:52.451Z,1114.07
2019-06-08T02:40:52.440Z,1114.31
2019-06-08T02:41:52.474Z,1114.35
2019-06-08T02:42:52.471Z,1114.27
2019-06-08T02:43:52.466Z,1114.14
2019-06-08T02:44:52.450Z,1114.06
2019-06-08T02:45:52.469Z,1113.88
2019-06-08T02:46:52.462Z,1113.85
2019-06-08T02:47:52.482Z,1114.03
2019-06-08T02:49:03.062Z,1114.25
2019-06-08T02:49:52.468Z,1114.2
2019-06-08T02:50:52.479Z,1114.38
2019-06-08T02:51:52.471Z,1114.23
2019-06-08T02:52:52.496Z,1113.96
2019-06-08T02:53:52.464Z,1113.94
2019-06-08T02:54:52.490Z,1113.98
2019-06-08T02:55:52.495Z,1113.86
2019-06-08T02:56:52.481Z,1114.04
2019-06-08T02:57:52.472Z,1114.18
2019-06-08T02:58:52.494Z,1114.2
2019-06-08T02:59:52.489Z,1114.26
2019-06-08T03:00:52.510Z,1114.33
2019-06-08T03:01:52.500Z,1114.36
2019-06-08T03:02:52.499Z,1114.38
2019-06-08T03:03:52.491Z,1114.43
2019-06-08T03:04:52.500Z,1114.49
2019-06-08T03:05:52.497Z,1114.69
2019-06-08T03:06:52.486Z,1114.59
2019-06-08T03:07:52.952Z,1114.65
2019-06-08T03:08:52.510Z,1114.59
2019-06-08T03:09:52.516Z,1114.77
2019-06-08T03:10:52.512Z,1114.72
2019-06-08T03:11:52.519Z,1114.98
2019-06-08T03:12:52.531Z,1114.97
2019-06-08T03:13:52.843Z,1115.26
2019-06-08T03:14:52.518Z,1115.4
2019-06-08T03:15:52.507Z,1115.5
2019-06-08T03:16:52.520Z,1115.66
2019-06-08T03:17:52.500Z,1115.85
2019-06-08T03:18:52.525Z,1115.94
2019-06-08T03:19:52.529Z,1116.03
2019-06-08T03:20:52.523Z,1116.15
2019-06-08T03:21:52.532Z,1116.21
2019-06-08T03:22:52.536Z,1116.16
2019-06-08T03:23:52.538Z,1116.22
2019-06-08T03:24:52.541Z,1116.15
2019-06-08T03:25:53.505Z,1116.08
2019-06-08T03:26:52.558Z,1116.17
2019-06-08T03:27:52.534Z,1116.28
2019-06-08T03:28:52.552Z,1116.27
2019-06-08T03:29:52.546Z,1116.42
2019-06-08T03:30:54.612Z,1116.75
2019-06-08T03:31:55.507Z,1116.74
2019-06-08T03:32:56.158Z,1116.52
2019-06-08T03:33:55.333Z,1116.42
2019-06-08T03:34:56.129Z,1116.08
2019-06-08T03:35:57.516Z,1115.9
2019-06-08T03:36:56.264Z,1115.77
2019-06-08T03:37:52.887Z,1115.94
2019-06-08T03:38:52.545Z,1115.96
2019-06-08T03:39:52.552Z,1116.18
2019-06-08T03:40:52.564Z,1115.92
2019-06-08T03:41:52.563Z,1116.1
2019-06-08T03:42:53.203Z,1116.23
2019-06-08T03:43:52.926Z,1116.31
2019-06-08T03:44:52.574Z,1116.35
2019-06-08T03:45:52.572Z,1116.13
2019-06-08T03:46:52.592Z,1115.96
2019-06-08T03:47:52.577Z,1115.69
2019-06-08T03:48:52.562Z,1115.71
2019-06-08T03:49:57.250Z,1115.61
2019-06-08T03:50:52.597Z,1115.49
2019-06-08T03:51:52.573Z,1115.66
2019-06-08T03:52:52.573Z,1115.63
2019-06-08T03:53:52.586Z,1115.91
2019-06-08T03:54:52.585Z,1115.86
2019-06-08T03:55:52.568Z,1115.8
2019-06-08T03:56:52.577Z,1115.99
2019-06-08T03:57:52.589Z,1116
2019-06-08T03:58:52.576Z,1116.07
2019-06-08T03:59:52.578Z,1116.27
2019-06-08T04:00:52.596Z,1116.27
2019-06-08T04:01:52.596Z,1116.34
2019-06-08T04:02:52.585Z,1116.36
2019-06-08T04:03:52.595Z,1116.53
2019-06-08T04:04:52.611Z,1116.69
2019-06-08T04:05:52.590Z,1116.72
2019-06-08T04:06:52.593Z,1116.7
2019-06-08T04:07:52.590Z,1116.73
2019-06-08T04:08:52.597Z,1116.7
2019-06-08T04:09:52.609Z,1116.57
2019-06-08T04:10:52.590Z,1116.78
2019-06-08T04:11:52.602Z,1116.87
2019-06-08T04:12:52.620Z,1117.16
2019-06-08T04:13:52.598Z,1117.04
2019-06-08T04:14:52.600Z,1117.03
2019-06-08T04:15:52.612Z,1117.05
2019-06-08T04:16:52.618Z,1117.25
2019-06-08T04:17:52.800Z,1117.48
2019-06-08T04:18:52.604Z,1117.64
2019-06-08T04:20:09.295Z,1117.86
2019-06-08T04:20:52.625Z,1117.95
2019-06-08T04:21:52.640Z,1118.02
2019-06-08T04:22:52.614Z,1118.08
2019-06-08T04:23:52.618Z,1118.03
2019-06-08T04:24:52.626Z,1118.32
2019-06-08T04:25:52.616Z,1118.12
2019-06-08T04:26:52.656Z,1118.06
2019-06-08T04:27:52.644Z,1118.04
2019-06-08T04:28:52.841Z,1118.04
2019-06-08T04:29:52.644Z,1117.94
2019-06-08T04:30:52.630Z,1118.05
2019-06-08T04:31:52.645Z,1117.98
2019-06-08T04:32:52.643Z,1117.9
2019-06-08T04:33:52.657Z,1117.94
2019-06-08T04:34:52.635Z,1117.86
2019-06-08T04:35:52.639Z,1117.79
2019-06-08T04:36:52.657Z,1117.75
2019-06-08T04:37:52.639Z,1117.66
2019-06-08T04:38:52.680Z,1117.66
2019-06-08T04:39:52.645Z,1117.58
2019-06-08T04:40:52.682Z,1117.46
2019-06-08T04:41:52.665Z,1117.41
2019-06-08T04:42:52.670Z,1117.42
2019-06-08T04:43:52.650Z,1117.5
2019-06-08T04:44:52.672Z,1117.79
2019-06-08T04:45:52.677Z,1117.79
2019-06-08T04:46:52.671Z,1117.84
2019-06-08T04:47:52.676Z,1118.07
2019-06-08T04:48:52.662Z,1118.03
2019-06-08T04:49:52.667Z,1118.25
2019-06-08T04:50:52.684Z,1118.38
2019-06-08T04:51:52.664Z,1118.45
2019-06-08T04:52:52.670Z,1118.45
2019-06-08T04:53:52.681Z,1118.4
2019-06-08T04:54:52.680Z,1118.35
2019-06-08T04:55:52.688Z,1118.33
2019-06-08T04:56:52.686Z,1118.12
2019-06-08T04:57:52.693Z,1118.01
2019-06-08T04:58:52.695Z,1117.78
2019-06-08T04:59:52.704Z,1117.64
2019-06-08T05:00:52.689Z,1117.36
2019-06-08T05:01:52.680Z,1117.49
2019-06-08T05:02:52.705Z,1117.46
2019-06-08T05:03:52.692Z,1117.43
2019-06-08T05:04:52.718Z,1117.19
2019-06-08T05:05:52.680Z,1117.26
2019-06-08T05:06:52.709Z,1117.37
2019-06-08T05:07:52.719Z,1117.5
2019-06-08T05:08:52.702Z,1117.76
2019-06-08T05:09:52.707Z,1117.62
2019-06-08T05:10:52.725Z,1117.5
2019-06-08T05:11:52.726Z,1117.75
2019-06-08T05:12:52.718Z,1117.58
2019-06-08T05:13:52.717Z,1117.65
2019-06-08T05:14:52.808Z,1117.88
2019-06-08T05:15:52.705Z,1117.99
2019-06-08T05:16:52.731Z,1117.81
2019-06-08T05:17:52.705Z,1117.88
2019-06-08T05:18:52.725Z,1117.65
2019-06-08T05:19:52.715Z,1117.63
2019-06-08T05:20:52.746Z,1117.56
2019-06-08T05:21:52.730Z,1117.7
2019-06-08T05:22:52.733Z,1117.71
2019-06-08T05:23:58.475Z,1117.42
2019-06-08T05:24:52.726Z,1117.32
2019-06-08T05:25:52.716Z,1117.3
2019-06-08T05:26:52.718Z,1117.35
2019-06-08T05:27:52.731Z,1117.14
2019-06-08T05:28:52.732Z,1116.99
2019-06-08T05:29:52.723Z,1116.79
2019-06-08T05:30:52.751Z,1116.89
2019-06-08T05:31:53.028Z,1116.97
2019-06-08T05:32:52.737Z,1117.17
2019-06-08T05:33:52.746Z,1117.42
2019-06-08T05:34:52.757Z,1117.73
2019-06-08T05:35:52.737Z,1117.95
2019-06-08T05:36:52.759Z,1118.18
2019-06-08T05:37:53.059Z,1118.33
2019-06-08T05:38:52.769Z,1118.51
2019-06-08T05:39:52.770Z,1118.61
2019-06-08T05:40:52.759Z,1118.86
2019-06-08T05:41:52.742Z,1118.83
2019-06-08T05:42:52.758Z,1119.21
2019-06-08T05:43:52.750Z,1119.42
2019-06-08T05:44:52.761Z,1119.53
2019-06-08T05:45:52.782Z,1119.63
2019-06-08T05:46:52.775Z,1119.63
2019-06-08T05:47:52.774Z,1119.7
2019-06-08T05:48:52.783Z,1119.76
2019-06-08T05:49:52.768Z,1119.83
2019-06-08T05:51:02.821Z,1119.73
2019-06-08T05:51:52.779Z,1119.54
2019-06-08T05:52:52.786Z,1119.49
2019-06-08T05:53:52.783Z,1119.44
2019-06-08T05:54:52.798Z,1119.2
2019-06-08T05:55:52.769Z,1119.3
2019-06-08T05:56:52.795Z,1119.21
2019-06-08T05:57:52.790Z,1119.11
2019-06-08T05:58:52.799Z,1119.06
2019-06-08T05:59:52.784Z,1119.01
2019-06-08T06:00:53.707Z,1118.87
2019-06-08T06:01:53.199Z,1118.49
2019-06-08T06:02:52.808Z,1118.56
2019-06-08T06:03:52.811Z,1118.47
2019-06-08T06:04:53.886Z,1118.63
2019-06-08T06:05:52.802Z,1118.65
2019-06-08T06:06:52.798Z,1118.8
2019-06-08T06:07:53.197Z,1118.83
2019-06-08T06:08:52.787Z,1118.95
2019-06-08T06:13:21.791Z,1119.43
2019-06-08T06:14:21.772Z,1119.41
2019-06-08T06:15:21.822Z,1119.6
2019-06-08T06:16:21.796Z,1119.73
2019-06-08T06:17:21.794Z,1119.75
2019-06-08T06:18:21.930Z,1119.71
2019-06-08T06:19:21.933Z,1119.48
2019-06-08T06:20:21.898Z,1119.3
2019-06-08T06:21:21.850Z,1118.93
2019-06-08T06:22:21.828Z,1119.11
2019-06-08T06:23:21.843Z,1118.98
2019-06-08T06:24:21.823Z,1119.01
2019-06-08T06:25:21.932Z,1118.88
2019-06-08T06:26:21.868Z,1118.92
2019-06-08T06:27:21.822Z,1118.91
2019-06-08T06:28:31.842Z,1118.9
2019-06-08T06:29:21.810Z,1119.07
2019-06-08T06:30:21.804Z,1119.21
2019-06-08T06:31:21.831Z,1119.41
2019-06-08T06:32:21.851Z,1119.61
2019-06-08T06:33:21.822Z,1119.72
2019-06-08T06:34:21.831Z,1119.83
2019-06-08T06:35:21.818Z,1120.15
2019-06-08T06:36:21.839Z,1120.41
2019-06-08T06:37:21.840Z,1120.63
2019-06-08T06:38:21.830Z,1120.78
2019-06-08T06:39:21.841Z,1120.9
2019-06-08T06:40:21.829Z,1120.65
2019-06-08T06:41:21.906Z,1120.68
2019-06-08T06:42:24.696Z,1120.69
2019-06-08T06:43:21.845Z,1120.58
2019-06-08T06:44:21.828Z,1120.86
2019-06-08T06:45:21.837Z,1121.27
2019-06-08T06:49:53.876Z,1124.75
2019-06-08T06:50:53.876Z,1125.19
2019-06-08T06:51:53.849Z,1125.67
2019-06-08T06:52:53.872Z,1126.11
2019-06-08T06:53:53.863Z,1126.59
2019-06-08T06:54:53.881Z,1126.84
2019-06-08T06:55:53.871Z,1127.19
2019-06-08T06:56:54.128Z,1127.41
2019-06-08T06:57:53.869Z,1127.63
2019-06-08T06:58:53.889Z,1127.73
2019-06-08T06:59:54.206Z,1127.84
2019-06-08T07:00:53.891Z,1127.96
2019-06-08T07:01:57.248Z,1128.13
2019-06-08T07:02:53.983Z,1128.21
2019-06-08T07:03:54.328Z,1128.39
2019-06-08T07:04:54.302Z,1128.28
2019-06-08T07:05:54.274Z,1128.41
2019-06-08T07:06:54.403Z,1128.4
2019-06-08T07:07:54.448Z,1128.36
2019-06-08T07:08:54.566Z,1128.38
2019-06-08T07:09:54.881Z,1128.5
2019-06-08T07:10:55.052Z,1128.79
2019-06-08T07:11:56.098Z,1128.78
2019-06-08T07:12:54.827Z,1128.98
2019-06-08T07:13:55.007Z,1129.06
2019-06-08T07:14:55.320Z,1129.29
2019-06-08T07:15:56.330Z,1129.67
2019-06-08T07:16:54.111Z,1129.99
2019-06-08T07:17:54.973Z,1130.23
2019-06-08T07:18:54.448Z,1130.59
2019-06-08T07:19:54.693Z,1130.75
2019-06-08T07:20:54.353Z,1131.1
2019-06-08T07:21:54.763Z,1131.32
2019-06-08T07:22:54.387Z,1131.53
2019-06-08T07:23:56.014Z,1131.74
2019-06-08T07:24:54.503Z,1132.02
2019-06-08T07:25:54.527Z,1132.12
2019-06-08T07:26:54.538Z,1132.21
2019-06-08T07:27:55.078Z,1132.25
2019-06-08T07:28:55.198Z,1132.35
2019-06-08T07:29:54.741Z,1132.43
2019-06-08T07:30:54.861Z,1132.54
2019-06-08T07:31:55.238Z,1132.62
2019-06-08T07:32:54.976Z,1132.82
2019-06-08T07:33:55.517Z,1132.81
2019-06-08T07:34:55.151Z,1133.05
2019-06-08T07:35:55.213Z,1133
2019-06-08T07:36:55.174Z,1133.23
2019-06-08T07:37:53.931Z,1133.3
2019-06-08T07:38:53.941Z,1133.4
2019-06-08T07:39:53.928Z,1133.47
2019-06-08T07:40:55.830Z,1133.56
2019-06-08T07:41:54.314Z,1133.57
2019-06-08T07:42:54.905Z,1133.53
2019-06-08T07:43:54.422Z,1133.56
2019-06-08T07:44:55.058Z,1133.57
2019-06-08T07:45:54.186Z,1133.53
2019-06-08T07:46:53.952Z,1133.52
2019-06-08T07:47:54.023Z,1133.62
2019-06-08T07:48:54.468Z,1133.47
2019-06-08T07:49:55.440Z,1133.39
2019-06-08T07:50:54.305Z,1133.33
2019-06-08T07:52:02.057Z,1133.41
2019-06-08T07:52:54.624Z,1133.34
2019-06-08T07:53:53.977Z,1133.24
2019-06-08T07:54:54.653Z,1133.23
2019-06-08T07:55:53.955Z,1133.23
2019-06-08T07:56:54.901Z,1133.27
2019-06-08T07:57:54.088Z,1133.34
2019-06-08T07:58:54.995Z,1133.41
2019-06-08T07:59:54.540Z,1133.36
2019-06-08T08:00:54.588Z,1133.45
2019-06-08T08:01:54.024Z,1133.52
2019-06-08T08:02:54.303Z,1133.51
2019-06-08T08:03:54.194Z,1133.67
2019-06-08T08:04:54.577Z,1133.82
2019-06-08T08:05:55.026Z,1133.99
2019-06-08T08:06:54.520Z,1134.11
2019-06-08T08:07:54.726Z,1134.36
2019-06-08T08:08:54.787Z,1134.36
2019-06-08T08:09:56.958Z,1134.71
2019-06-08T08:10:54.560Z,1134.86
2019-06-08T08:11:55.184Z,1135.1
2019-06-08T08:12:54.711Z,1135.28
2019-06-08T08:13:54.824Z,1135.45
2019-06-08T08:14:55.195Z,1135.5
2019-06-08T08:15:57.263Z,1135.67
2019-06-08T08:16:55.007Z,1135.79
2019-06-08T08:17:55.145Z,1135.69
2019-06-08T08:18:53.996Z,1135.82
2019-06-08T08:19:55.135Z,1135.78
2019-06-08T08:20:55.636Z,1135.77
2019-06-08T08:21:54.911Z,1135.81
2019-06-08T08:22:57.560Z,1135.81
2019-06-08T08:23:55.843Z,1135.86
2019-06-08T08:24:56.032Z,1135.89
2019-06-08T08:25:55.150Z,1135.99
2019-06-08T08:26:54.838Z,1136.1
2019-06-08T08:27:55.004Z,1136.2
2019-06-08T08:28:55.087Z,1136.44
2019-06-08T08:29:55.338Z,1136.54
2019-06-08T08:30:55.406Z,1136.72
2019-06-08T08:31:54.035Z,1136.95
2019-06-08T08:32:54.914Z,1137.08
2019-06-08T08:33:54.572Z,1137.3
2019-06-08T08:34:54.062Z,1137.52
2019-06-08T08:35:54.022Z,1137.72
2019-06-08T08:36:54.033Z,1137.87
2019-06-08T08:37:56.935Z,1137.98
2019-06-08T08:38:54.042Z,1138.22
2019-06-08T08:39:54.053Z,1138.34
2019-06-08T08:40:54.971Z,1138.42
2019-06-08T08:41:56.905Z,1138.58
2019-06-08T08:42:54.061Z,1138.71
2019-06-08T08:43:54.364Z,1138.79
2019-06-08T08:44:54.217Z,1138.95
2019-06-08T08:45:54.098Z,1139.05
2019-06-08T08:46:54.715Z,1139.08
2019-06-08T08:48:05.817Z,1139.14
2019-06-08T08:48:54.266Z,1139.1
2019-06-08T08:49:54.067Z,1139.11
2019-06-08T08:50:54.214Z,1139.19
2019-06-08T08:51:54.098Z,1139.19
2019-06-08T08:52:54.180Z,1139.24
2019-06-08T08:53:58.370Z,1139.31
2019-06-08T08:54:54.346Z,1139.3
2019-06-08T08:55:54.302Z,1139.16
2019-06-08T08:56:56.601Z,1139.08
2019-06-08T08:57:54.791Z,1138.7
2019-06-08T08:58:54.391Z,1138.36
2019-06-08T08:59:56.044Z,1138.23
2019-06-08T09:00:55.247Z,1137.81
2019-06-08T09:01:54.745Z,1137.68
2019-06-08T09:03:12.942Z,1137.45
2019-06-08T09:03:55.847Z,1137.32
2019-06-08T09:04:55.190Z,1137.18
2019-06-08T09:05:55.688Z,1137.21
2019-06-08T09:06:55.329Z,1137.3
2019-06-08T09:07:55.644Z,1137.13
2019-06-08T09:08:55.654Z,1137.04
2019-06-08T09:09:55.412Z,1136.83
2019-06-08T09:10:55.354Z,1135.72
2019-06-08T09:11:55.737Z,1135.53
2019-06-08T09:12:56.352Z,1135.68
2019-06-08T09:13:55.524Z,1135.35
2019-06-08T09:14:54.785Z,1134.52
2019-06-08T09:15:55.708Z,1132.38
2019-06-08T09:16:55.615Z,1130.31
2019-06-08T09:17:55.757Z,1129.76
2019-06-08T09:18:55.733Z,1127.27
2019-06-08T09:19:55.862Z,1125.8
2019-06-08T09:20:54.120Z,1123.96
2019-06-08T09:21:54.159Z,1122.49
2019-06-08T09:23:02.915Z,1120.09
2019-06-08T09:23:55.737Z,1117.71
2019-06-08T09:24:54.383Z,1115.35
2019-06-08T09:25:57.032Z,1113.63
2019-06-08T09:26:54.247Z,1112.3
2019-06-08T09:27:54.616Z,1114.49
2019-06-08T09:28:56.074Z,1113.29
2019-06-08T09:29:54.857Z,1110.37
2019-06-08T09:30:54.186Z,1107.51
2019-06-08T09:31:54.152Z,1104.78
2019-06-08T09:32:54.458Z,1101.7
2019-06-08T09:33:59.161Z,1098.32
2019-06-08T09:34:54.702Z,1095.18
2019-06-08T09:35:54.792Z,1093.22
2019-06-08T09:36:55.268Z,1091.5
2019-06-08T09:37:54.781Z,1089.23
2019-06-08T09:38:55.909Z,1086.86
2019-06-08T09:39:54.159Z,1085.31
2019-06-08T09:40:54.815Z,1083.28
2019-06-08T09:41:55.261Z,1080.65
2019-06-08T09:42:58.197Z,1077.18
2019-06-08T09:43:55.561Z,1074.51
2019-06-08T09:44:55.405Z,1071.81
2019-06-08T09:45:55.308Z,1070.13
2019-06-08T09:46:55.150Z,1068.38
2019-06-08T09:47:55.305Z,1066.6
2019-06-08T09:48:55.564Z,1064.57
2019-06-08T09:49:55.290Z,1062.62
2019-06-08T09:50:55.131Z,1060.16
2019-06-08T09:51:55.332Z,1059.27
2019-06-08T09:53:07.814Z,1066.37
2019-06-08T09:53:54.639Z,1072.23
2019-06-08T09:54:55.507Z,1076.94
2019-06-08T09:55:55.020Z,1080.78
2019-06-08T09:56:55.693Z,1077.67
2019-06-08T09:57:54.949Z,1077.37
2019-06-08T09:58:55.902Z,1080.55
2019-06-08T09:59:55.144Z,1077.85
2019-06-08T10:00:54.935Z,1072.96
2019-06-08T10:01:55.463Z,1069.3
2019-06-08T10:02:55.061Z,1067.68
2019-06-08T10:03:54.415Z,1071.33
2019-06-08T10:04:54.234Z,1074.5
2019-06-08T10:05:54.282Z,1074.06
2019-06-08T10:06:54.344Z,1072.96
2019-06-08T10:07:54.470Z,1070.28
2019-06-08T10:08:54.328Z,1067.92
2019-06-08T10:09:54.316Z,1066.89
2019-06-08T10:10:54.506Z,1062.9
2019-06-08T10:11:54.320Z,1060.51
2019-06-08T10:12:54.539Z,1059.85
2019-06-08T10:13:54.508Z,1058.87
2019-06-08T10:14:54.549Z,1057.08
2019-06-08T10:15:54.865Z,1054.64
2019-06-08T10:16:54.230Z,1053.38
2019-06-08T10:17:54.785Z,1056.68
2019-06-08T10:18:54.955Z,1062.65
2019-06-08T10:19:54.622Z,1059.06
2019-06-08T10:20:54.747Z,1062.62
2019-06-08T10:21:54.788Z,1059.27
2019-06-08T10:22:54.785Z,1056.69
2019-06-08T10:23:54.807Z,1055.29
2019-06-08T10:24:55.407Z,1053.99
2019-06-08T10:25:54.869Z,1053.22
2019-06-08T10:26:55.141Z,1052.86
2019-06-08T10:27:55.125Z,1052.48
2019-06-08T10:29:00.035Z,1051.96
2019-06-08T10:29:55.193Z,1052.01
2019-06-08T10:30:55.307Z,1051.53
2019-06-08T10:31:55.169Z,1048.45
2019-06-08T10:32:56.078Z,1043.93
2019-06-08T10:33:55.559Z,1039.37
2019-06-08T10:34:55.536Z,1037.41
2019-06-08T10:35:55.615Z,1043.54
2019-06-08T10:36:55.510Z,1051.09
2019-06-08T10:37:55.584Z,1053.75
2019-06-08T10:38:55.963Z,1052.04
2019-06-08T10:39:55.764Z,1050.37
2019-06-08T10:40:56.196Z,1048.23
2019-06-08T10:41:54.271Z,1045.73
2019-06-08T10:42:54.271Z,1043.36
2019-06-08T10:43:54.286Z,1040.3
2019-06-08T10:44:54.254Z,1036.84
2019-06-08T10:45:54.249Z,1033.15
2019-06-08T10:46:54.276Z,1028.21
2019-06-08T10:47:54.283Z,1034.34
2019-06-08T10:48:54.511Z,1040.94
2019-06-08T10:49:54.280Z,1047.56
2019-06-08T10:50:54.302Z,1051.91
2019-06-08T10:51:54.294Z,1055.21
2019-06-08T10:52:54.282Z,1055.39
2019-06-08T10:53:54.804Z,1052.5
2019-06-08T10:54:54.295Z,1048.08
2019-06-08T10:55:54.281Z,1053.41
2019-06-08T10:56:54.286Z,1050.83
2019-06-08T10:57:54.277Z,1052.15
2019-06-08T10:59:00.178Z,1051.3
2019-06-08T10:59:54.279Z,1047.12
2019-06-08T11:00:54.285Z,1048.01
2019-06-08T11:01:54.291Z,1049.93
2019-06-08T11:02:54.305Z,1053.2
2019-06-08T11:03:54.328Z,1057.45
2019-06-08T11:04:54.294Z,1052.7
2019-06-08T11:05:54.304Z,1048.97
2019-06-08T11:06:54.408Z,1045.16
2019-06-08T11:07:54.575Z,1041.41
2019-06-08T11:08:54.317Z,1039.14
2019-06-08T11:09:54.322Z,1039.36
2019-06-08T11:10:54.309Z,1038.74
2019-06-08T11:11:54.297Z,1036.29
2019-06-08T11:12:54.311Z,1038.35
2019-06-08T11:13:54.366Z,1041.57
2019-06-08T11:14:54.334Z,1036.46
2019-06-08T11:15:54.303Z,1033.37
2019-06-08T11:16:54.323Z,1035.21
2019-06-08T11:17:54.378Z,1042.37
2019-06-08T11:18:54.314Z,1042.44
2019-06-08T11:19:54.316Z,1039.68
2019-06-08T11:20:54.337Z,1038.03
2019-06-08T11:21:54.342Z,1036.6
2019-06-08T11:22:54.334Z,1034.62
2019-06-08T11:24:07.181Z,1032.54
2019-06-08T11:24:54.344Z,1031.75
2019-06-08T11:25:54.360Z,1031.89
2019-06-08T11:26:54.338Z,1031.38
2019-06-08T11:27:54.359Z,1030.64
2019-06-08T11:29:02.916Z,1029.81
2019-06-08T11:29:54.324Z,1029.05
2019-06-08T11:30:54.610Z,1027.86
2019-06-08T11:31:54.352Z,1026.75
2019-06-08T11:32:54.380Z,1027.71
2019-06-08T11:33:54.468Z,1026.17
2019-06-08T11:34:54.379Z,1029.7
2019-06-08T11:35:54.358Z,1025.56
2019-06-08T11:40:28.556Z,1014.91
2019-06-08T11:41:28.545Z,1014.68
2019-06-08T11:42:28.753Z,1014.5
2019-06-08T11:43:28.801Z,1014.54
2019-06-08T11:44:28.549Z,1013.99
2019-06-08T11:45:28.550Z,1014
2019-06-08T11:46:28.560Z,1012.53
2019-06-08T11:47:30.960Z,1011.28
2019-06-08T11:48:28.661Z,1009.88
2019-06-08T11:49:28.556Z,1008.29
2019-06-08T11:50:28.565Z,1010.7
2019-06-08T11:51:29.779Z,1014.92
2019-06-08T11:52:28.683Z,1013.3
2019-06-08T11:53:28.881Z,1011.52
2019-06-08T11:54:36.274Z,1009.55
2019-06-08T11:55:28.572Z,1008.04
2019-06-08T11:56:28.646Z,1007.15
2019-06-08T11:57:28.570Z,1005.73
2019-06-08T11:58:30.734Z,1005.28
2019-06-08T11:59:28.616Z,1004.3
2019-06-08T12:03:58.695Z,1017.56
2019-06-08T12:04:58.674Z,1025.23
2019-06-08T12:09:29.405Z,1034.66
2019-06-08T12:10:29.403Z,1032.96
2019-06-08T12:11:29.410Z,1031.16
2019-06-08T12:12:29.402Z,1029.46
2019-06-08T12:13:29.408Z,1027.54
2019-06-08T12:14:29.412Z,1024.54
2019-06-08T12:15:29.399Z,1021.51
2019-06-08T12:16:29.411Z,1019.01
2019-06-08T12:17:29.414Z,1015.64
2019-06-08T12:18:29.424Z,1012.41
2019-06-08T12:19:31.518Z,1009.97
2019-06-08T12:20:29.430Z,1007.23
2019-06-08T12:21:29.764Z,1004.54
2019-06-08T12:22:29.405Z,1002.24
2019-06-08T12:23:29.407Z,1000.22
2019-06-08T12:24:41.253Z,998.17
2019-06-08T12:25:29.432Z,995.8
2019-06-08T12:26:29.433Z,992.83
2019-06-08T12:27:33.587Z,991.04
2019-06-08T12:28:29.586Z,989.66
2019-06-08T12:29:29.573Z,989.26
2019-06-08T12:30:29.727Z,988.56
2019-06-08T12:31:29.462Z,988.89
2019-06-08T12:32:29.452Z,988.29
2019-06-08T12:33:30.714Z,986.84
2019-06-08T12:34:29.437Z,987.12
2019-06-08T12:35:29.430Z,987.7
2019-06-08T12:36:30.706Z,987.94
2019-06-08T12:37:29.436Z,988.81
2019-06-08T12:38:32.163Z,989.05